Terminal Aerodrome Forecast
Issued by NWS

Current Version | Previous Version | Text Only | Print | Product List | Glossary Off
Versions: 1 2 3 4 5 6 7 8 9 10 11 12 13 14 15 16 17 18 19 20 21 22

000
FTUS41 KRLX 190200 AAA
TAFCKB
TAF AMD
KCKB 190241Z 1903/1924 00000KT P6SM SKC
     FM190800 00000KT 5SM BR SKC
     FM191000 00000KT 2SM BR FEW001
     FM191300 00000KT P6SM SKC
     FM191500 08004KT P6SM SCT040=

USA.gov is the U.S. government's official web portal to all federal, state and local government web resources and services.